sensor_id;sensor_type;location;lat;lon;timestamp;temperature;humidity
18506;DHT22;9382;53.242;10.438;2024-01-25T00:00:09;7.40;99.90
18506;DHT22;9382;53.242;10.438;2024-01-25T00:02:37;7.30;99.90
18506;DHT22;9382;53.242;10.438;2024-01-25T00:05:05;7.30;99.90
18506;DHT22;9382;53.242;10.438;2024-01-25T00:07:32;7.30;99.90
18506;DHT22;9382;53.242;10.438;2024-01-25T00:09:59;7.20;99.90
18506;DHT22;9382;53.242;10.438;2024-01-25T00:12:26;7.20;99.90
18506;DHT22;9382;53.242;10.438;2024-01-25T00:14:53;7.20;99.90
18506;DHT22;9382;53.242;10.438;2024-01-25T00:17:20;7.30;99.90
18506;DHT22;9382;53.242;10.438;2024-01-25T00:19:48;7.30;99.90
18506;DHT22;9382;53.242;10.438;2024-01-25T00:22:15;7.30;99.90
18506;DHT22;9382;53.242;10.438;2024-01-25T00:24:42;7.30;99.90
18506;DHT22;9382;53.242;10.438;2024-01-25T00:27:09;7.30;99.90
18506;DHT22;9382;53.242;10.438;2024-01-25T00:29:36;7.20;99.90
18506;DHT22;9382;53.242;10.438;2024-01-25T00:32:03;7.20;99.90
18506;DHT22;9382;53.242;10.438;2024-01-25T00:34:31;7.20;99.90
18506;DHT22;9382;53.242;10.438;2024-01-25T00:36:59;7.10;99.90
18506;DHT22;9382;53.242;10.438;2024-01-25T00:39:26;7.10;99.90
18506;DHT22;9382;53.242;10.438;2024-01-25T00:41:57;7.10;99.90
18506;DHT22;9382;53.242;10.438;2024-01-25T00:44:25;7.00;99.90
18506;DHT22;9382;53.242;10.438;2024-01-25T00:46:53;7.00;99.90
18506;DHT22;9382;53.242;10.438;2024-01-25T00:49:20;7.00;99.90
18506;DHT22;9382;53.242;10.438;2024-01-25T00:51:48;7.00;99.90
18506;DHT22;9382;53.242;10.438;2024-01-25T00:54:19;7.00;99.90
18506;DHT22;9382;53.242;10.438;2024-01-25T00:56:47;7.00;99.90
18506;DHT22;9382;53.242;10.438;2024-01-25T00:59:16;7.00;99.90
18506;DHT22;9382;53.242;10.438;2024-01-25T01:01:46;7.00;99.90
18506;DHT22;9382;53.242;10.438;2024-01-25T01:04:13;6.90;99.90
18506;DHT22;9382;53.242;10.438;2024-01-25T01:06:41;6.90;99.90
18506;DHT22;9382;53.242;10.438;2024-01-25T01:09:08;7.00;99.90
18506;DHT22;9382;53.242;10.438;2024-01-25T01:11:37;7.00;99.90
18506;DHT22;9382;53.242;10.438;2024-01-25T01:14:04;6.90;99.90
18506;DHT22;9382;53.242;10.438;2024-01-25T01:16:30;6.90;99.90
18506;DHT22;9382;53.242;10.438;2024-01-25T01:18:58;6.90;99.90
18506;DHT22;9382;53.242;10.438;2024-01-25T01:21:30;6.90;99.90
18506;DHT22;9382;53.242;10.438;2024-01-25T01:23:57;6.90;99.90
18506;DHT22;9382;53.242;10.438;2024-01-25T01:26:23;6.90;99.90
18506;DHT22;9382;53.242;10.438;2024-01-25T01:28:52;7.00;99.90
18506;DHT22;9382;53.242;10.438;2024-01-25T01:31:18;7.00;99.90
18506;DHT22;9382;53.242;10.438;2024-01-25T01:33:46;7.00;99.90
18506;DHT22;9382;53.242;10.438;2024-01-25T01:36:13;7.00;99.90
18506;DHT22;9382;53.242;10.438;2024-01-25T01:38:40;7.10;99.90
18506;DHT22;9382;53.242;10.438;2024-01-25T01:41:08;7.20;99.90
18506;DHT22;9382;53.242;10.438;2024-01-25T01:43:35;7.20;99.90
18506;DHT22;9382;53.242;10.438;2024-01-25T01:46:07;7.20;99.90
18506;DHT22;9382;53.242;10.438;2024-01-25T01:48:35;7.30;99.90
18506;DHT22;9382;53.242;10.438;2024-01-25T01:51:02;7.30;99.90
18506;DHT22;9382;53.242;10.438;2024-01-25T01:53:29;7.30;99.90
18506;DHT22;9382;53.242;10.438;2024-01-25T01:55:57;7.30;99.90
18506;DHT22;9382;53.242;10.438;2024-01-25T01:58:24;7.40;99.90
18506;DHT22;9382;53.242;10.438;2024-01-25T02:00:56;7.40;99.90
18506;DHT22;9382;53.242;10.438;2024-01-25T02:03:26;7.40;99.90
18506;DHT22;9382;53.242;10.438;2024-01-25T02:05:52;7.40;99.90
18506;DHT22;9382;53.242;10.438;2024-01-25T02:08:19;7.50;99.90
18506;DHT22;9382;53.242;10.438;2024-01-25T02:10:46;7.50;99.90
18506;DHT22;9382;53.242;10.438;2024-01-25T02:13:13;7.50;99.90
18506;DHT22;9382;53.242;10.438;2024-01-25T02:15:39;7.50;99.90
18506;DHT22;9382;53.242;10.438;2024-01-25T02:18:06;7.50;99.90
18506;DHT22;9382;53.242;10.438;2024-01-25T02:20:34;7.50;99.90
18506;DHT22;9382;53.242;10.438;2024-01-25T02:23:03;7.50;99.90
18506;DHT22;9382;53.242;10.438;2024-01-25T02:25:29;7.50;99.90
18506;DHT22;9382;53.242;10.438;2024-01-25T02:27:56;7.50;99.90
18506;DHT22;9382;53.242;10.438;2024-01-25T02:30:23;7.50;99.90
18506;DHT22;9382;53.242;10.438;2024-01-25T02:32:49;7.50;99.90
18506;DHT22;9382;53.242;10.438;2024-01-25T02:35:16;7.50;99.90
18506;DHT22;9382;53.242;10.438;2024-01-25T02:37:43;7.60;99.90
18506;DHT22;9382;53.242;10.438;2024-01-25T02:40:12;7.50;99.90
18506;DHT22;9382;53.242;10.438;2024-01-25T02:42:39;7.60;99.90
18506;DHT22;9382;53.242;10.438;2024-01-25T02:45:06;7.60;99.90
18506;DHT22;9382;53.242;10.438;2024-01-25T02:47:33;7.60;99.90
18506;DHT22;9382;53.242;10.438;2024-01-25T02:49:59;7.60;99.90
18506;DHT22;9382;53.242;10.438;2024-01-25T02:52:26;7.50;99.90
18506;DHT22;9382;53.242;10.438;2024-01-25T02:54:53;7.50;99.90
18506;DHT22;9382;53.242;10.438;2024-01-25T02:57:21;7.50;99.90
18506;DHT22;9382;53.242;10.438;2024-01-25T02:59:48;7.50;99.90
18506;DHT22;9382;53.242;10.438;2024-01-25T03:02:15;7.50;99.90
18506;DHT22;9382;53.242;10.438;2024-01-25T03:04:42;7.50;99.90
18506;DHT22;9382;53.242;10.438;2024-01-25T03:07:09;7.50;99.90
18506;DHT22;9382;53.242;10.438;2024-01-25T03:09:35;7.50;99.90
18506;DHT22;9382;53.242;10.438;2024-01-25T03:12:02;7.50;99.90
18506;DHT22;9382;53.242;10.438;2024-01-25T03:14:31;7.60;99.90
18506;DHT22;9382;53.242;10.438;2024-01-25T03:16:57;7.60;99.90
18506;DHT22;9382;53.242;10.438;2024-01-25T03:19:25;7.60;99.90
18506;DHT22;9382;53.242;10.438;2024-01-25T03:21:52;7.60;99.90
18506;DHT22;9382;53.242;10.438;2024-01-25T03:24:19;7.60;99.90
18506;DHT22;9382;53.242;10.438;2024-01-25T03:26:46;7.60;99.90
18506;DHT22;9382;53.242;10.438;2024-01-25T03:29:14;7.60;99.90
18506;DHT22;9382;53.242;10.438;2024-01-25T03:31:43;7.60;99.90
18506;DHT22;9382;53.242;10.438;2024-01-25T03:34:09;7.60;99.90
18506;DHT22;9382;53.242;10.438;2024-01-25T03:36:37;7.60;99.90
18506;DHT22;9382;53.242;10.438;2024-01-25T03:39:05;7.60;99.90
18506;DHT22;9382;53.242;10.438;2024-01-25T03:41:32;7.60;99.90
18506;DHT22;9382;53.242;10.438;2024-01-25T03:43:59;7.60;99.90
18506;DHT22;9382;53.242;10.438;2024-01-25T03:46:25;7.70;99.90
18506;DHT22;9382;53.242;10.438;2024-01-25T03:48:53;7.70;99.90
18506;DHT22;9382;53.242;10.438;2024-01-25T03:51:20;7.70;99.90
18506;DHT22;9382;53.242;10.438;2024-01-25T03:53:49;7.70;99.90
18506;DHT22;9382;53.242;10.438;2024-01-25T03:56:18;7.70;99.90
18506;DHT22;9382;53.242;10.438;2024-01-25T03:58:45;7.60;99.90
18506;DHT22;9382;53.242;10.438;2024-01-25T04:01:12;7.60;99.90
18506;DHT22;9382;53.242;10.438;2024-01-25T04:03:39;7.60;99.90
18506;DHT22;9382;53.242;10.438;2024-01-25T04:06:07;7.60;99.90
18506;DHT22;9382;53.242;10.438;2024-01-25T04:08:34;7.70;99.90
18506;DHT22;9382;53.242;10.438;2024-01-25T04:11:01;7.60;99.90
18506;DHT22;9382;53.242;10.438;2024-01-25T04:13:28;7.60;99.90
18506;DHT22;9382;53.242;10.438;2024-01-25T04:15:54;7.60;99.90
18506;DHT22;9382;53.242;10.438;2024-01-25T04:18:21;7.60;99.90
18506;DHT22;9382;53.242;10.438;2024-01-25T04:20:48;7.60;99.90
18506;DHT22;9382;53.242;10.438;2024-01-25T04:23:17;7.60;99.90
18506;DHT22;9382;53.242;10.438;2024-01-25T04:25:44;7.60;99.90
18506;DHT22;9382;53.242;10.438;2024-01-25T04:28:10;7.60;99.90
18506;DHT22;9382;53.242;10.438;2024-01-25T04:30:37;7.60;99.90
18506;DHT22;9382;53.242;10.438;2024-01-25T04:33:05;7.60;99.90
18506;DHT22;9382;53.242;10.438;2024-01-25T04:35:31;7.60;99.90
18506;DHT22;9382;53.242;10.438;2024-01-25T04:37:58;7.60;99.90
18506;DHT22;9382;53.242;10.438;2024-01-25T04:40:26;7.60;99.90
18506;DHT22;9382;53.242;10.438;2024-01-25T04:42:53;7.60;99.90
18506;DHT22;9382;53.242;10.438;2024-01-25T04:45:20;7.60;99.90
18506;DHT22;9382;53.242;10.438;2024-01-25T04:47:46;7.60;99.90
18506;DHT22;9382;53.242;10.438;2024-01-25T04:50:13;7.60;99.90
18506;DHT22;9382;53.242;10.438;2024-01-25T04:52:40;7.60;99.90
18506;DHT22;9382;53.242;10.438;2024-01-25T04:55:07;7.60;99.90
18506;DHT22;9382;53.242;10.438;2024-01-25T04:57:36;7.60;99.90
18506;DHT22;9382;53.242;10.438;2024-01-25T05:00:03;7.60;99.90
18506;DHT22;9382;53.242;10.438;2024-01-25T05:02:30;7.60;99.90
18506;DHT22;9382;53.242;10.438;2024-01-25T05:04:57;7.60;99.90
18506;DHT22;9382;53.242;10.438;2024-01-25T05:07:23;7.60;99.90
18506;DHT22;9382;53.242;10.438;2024-01-25T05:09:50;7.60;99.90
18506;DHT22;9382;53.242;10.438;2024-01-25T05:12:17;7.60;99.90
18506;DHT22;9382;53.242;10.438;2024-01-25T05:14:45;7.60;99.90
18506;DHT22;9382;53.242;10.438;2024-01-25T05:17:12;7.60;99.90
18506;DHT22;9382;53.242;10.438;2024-01-25T05:19:39;7.60;99.90
18506;DHT22;9382;53.242;10.438;2024-01-25T05:22:05;7.60;99.90
18506;DHT22;9382;53.242;10.438;2024-01-25T05:24:32;7.60;99.90
18506;DHT22;9382;53.242;10.438;2024-01-25T05:26:59;7.50;99.90
18506;DHT22;9382;53.242;10.438;2024-01-25T05:29:27;7.60;99.90
18506;DHT22;9382;53.242;10.438;2024-01-25T05:31:55;7.50;99.90
18506;DHT22;9382;53.242;10.438;2024-01-25T05:34:24;7.50;99.90
18506;DHT22;9382;53.242;10.438;2024-01-25T05:36:51;7.50;99.90
18506;DHT22;9382;53.242;10.438;2024-01-25T05:39:18;7.50;99.90
18506;DHT22;9382;53.242;10.438;2024-01-25T05:41:45;7.50;99.90
18506;DHT22;9382;53.242;10.438;2024-01-25T05:44:12;7.50;99.90
18506;DHT22;9382;53.242;10.438;2024-01-25T05:46:39;7.50;99.90
18506;DHT22;9382;53.242;10.438;2024-01-25T05:49:07;7.50;99.90
18506;DHT22;9382;53.242;10.438;2024-01-25T05:51:34;7.50;99.90
18506;DHT22;9382;53.242;10.438;2024-01-25T05:54:01;7.50;99.90
18506;DHT22;9382;53.242;10.438;2024-01-25T05:56:29;7.50;99.90
18506;DHT22;9382;53.242;10.438;2024-01-25T05:58:56;7.50;99.90
18506;DHT22;9382;53.242;10.438;2024-01-25T06:01:22;7.50;99.90
18506;DHT22;9382;53.242;10.438;2024-01-25T06:03:50;7.50;99.90
18506;DHT22;9382;53.242;10.438;2024-01-25T06:06:18;7.50;99.90
18506;DHT22;9382;53.242;10.438;2024-01-25T06:08:45;7.40;99.90
18506;DHT22;9382;53.242;10.438;2024-01-25T06:11:11;7.50;99.90
18506;DHT22;9382;53.242;10.438;2024-01-25T06:13:38;7.40;99.90
18506;DHT22;9382;53.242;10.438;2024-01-25T06:16:05;7.40;99.90
18506;DHT22;9382;53.242;10.438;2024-01-25T06:18:32;7.40;99.90
18506;DHT22;9382;53.242;10.438;2024-01-25T06:20:59;7.40;99.90
18506;DHT22;9382;53.242;10.438;2024-01-25T06:23:27;7.40;99.90
18506;DHT22;9382;53.242;10.438;2024-01-25T06:25:53;7.40;99.90
18506;DHT22;9382;53.242;10.438;2024-01-25T06:28:20;7.40;99.90
18506;DHT22;9382;53.242;10.438;2024-01-25T06:30:47;7.40;99.90
18506;DHT22;9382;53.242;10.438;2024-01-25T06:33:14;7.40;99.90
18506;DHT22;9382;53.242;10.438;2024-01-25T06:35:40;7.40;99.90
18506;DHT22;9382;53.242;10.438;2024-01-25T06:38:07;7.40;99.90
18506;DHT22;9382;53.242;10.438;2024-01-25T06:40:35;7.40;99.90
18506;DHT22;9382;53.242;10.438;2024-01-25T06:43:02;7.40;99.90
18506;DHT22;9382;53.242;10.438;2024-01-25T06:45:29;7.40;99.90
18506;DHT22;9382;53.242;10.438;2024-01-25T06:47:55;7.40;99.90
18506;DHT22;9382;53.242;10.438;2024-01-25T06:50:22;7.40;99.90
18506;DHT22;9382;53.242;10.438;2024-01-25T06:52:50;7.30;99.90
18506;DHT22;9382;53.242;10.438;2024-01-25T06:55:19;7.30;99.90
18506;DHT22;9382;53.242;10.438;2024-01-25T06:57:47;7.30;99.90
18506;DHT22;9382;53.242;10.438;2024-01-25T07:00:15;7.30;99.90
18506;DHT22;9382;53.242;10.438;2024-01-25T07:02:41;7.20;99.90
18506;DHT22;9382;53.242;10.438;2024-01-25T07:05:08;7.20;99.90
18506;DHT22;9382;53.242;10.438;2024-01-25T07:07:35;7.20;99.90
18506;DHT22;9382;53.242;10.438;2024-01-25T07:10:04;7.30;99.90
18506;DHT22;9382;53.242;10.438;2024-01-25T07:12:31;7.20;99.90
18506;DHT22;9382;53.242;10.438;2024-01-25T07:14:59;7.30;99.90
18506;DHT22;9382;53.242;10.438;2024-01-25T07:17:25;7.30;99.90
18506;DHT22;9382;53.242;10.438;2024-01-25T07:19:52;7.30;99.90
18506;DHT22;9382;53.242;10.438;2024-01-25T07:22:19;7.30;99.90
18506;DHT22;9382;53.242;10.438;2024-01-25T07:24:47;7.30;99.90
18506;DHT22;9382;53.242;10.438;2024-01-25T07:27:14;7.30;99.90
18506;DHT22;9382;53.242;10.438;2024-01-25T07:29:43;7.30;99.90
18506;DHT22;9382;53.242;10.438;2024-01-25T07:32:12;7.30;99.90
18506;DHT22;9382;53.242;10.438;2024-01-25T07:34:39;7.30;99.90
18506;DHT22;9382;53.242;10.438;2024-01-25T07:37:05;7.30;99.90
18506;DHT22;9382;53.242;10.438;2024-01-25T07:39:32;7.30;99.90
18506;DHT22;9382;53.242;10.438;2024-01-25T07:41:59;7.30;99.90
18506;DHT22;9382;53.242;10.438;2024-01-25T07:44:26;7.30;99.90
18506;DHT22;9382;53.242;10.438;2024-01-25T07:46:53;7.30;99.90
18506;DHT22;9382;53.242;10.438;2024-01-25T07:49:21;7.30;99.90
18506;DHT22;9382;53.242;10.438;2024-01-25T07:51:48;7.30;99.90
18506;DHT22;9382;53.242;10.438;2024-01-25T07:54:14;7.30;99.90
18506;DHT22;9382;53.242;10.438;2024-01-25T07:56:41;7.30;99.90
18506;DHT22;9382;53.242;10.438;2024-01-25T07:59:08;7.30;99.90
18506;DHT22;9382;53.242;10.438;2024-01-25T08:01:35;7.30;99.90
18506;DHT22;9382;53.242;10.438;2024-01-25T08:04:02;7.30;99.90
18506;DHT22;9382;53.242;10.438;2024-01-25T08:06:31;7.30;99.90
18506;DHT22;9382;53.242;10.438;2024-01-25T08:08:57;7.30;99.90
18506;DHT22;9382;53.242;10.438;2024-01-25T08:11:24;7.30;99.90
18506;DHT22;9382;53.242;10.438;2024-01-25T08:13:51;7.40;99.90
18506;DHT22;9382;53.242;10.438;2024-01-25T08:16:18;7.40;99.90
18506;DHT22;9382;53.242;10.438;2024-01-25T08:18:46;7.40;99.90
18506;DHT22;9382;53.242;10.438;2024-01-25T08:21:13;7.40;99.90
18506;DHT22;9382;53.242;10.438;2024-01-25T08:23:41;7.40;99.90
18506;DHT22;9382;53.242;10.438;2024-01-25T08:26:08;7.40;99.90
18506;DHT22;9382;53.242;10.438;2024-01-25T08:28:39;7.40;99.90
18506;DHT22;9382;53.242;10.438;2024-01-25T08:31:05;7.40;99.90
18506;DHT22;9382;53.242;10.438;2024-01-25T08:33:32;7.40;99.90
18506;DHT22;9382;53.242;10.438;2024-01-25T08:35:59;7.50;99.90
18506;DHT22;9382;53.242;10.438;2024-01-25T08:38:26;7.50;99.90
18506;DHT22;9382;53.242;10.438;2024-01-25T08:40:54;7.50;99.90
18506;DHT22;9382;53.242;10.438;2024-01-25T08:43:20;7.60;99.90
18506;DHT22;9382;53.242;10.438;2024-01-25T08:45:47;7.60;99.90
18506;DHT22;9382;53.242;10.438;2024-01-25T08:48:14;7.60;99.90
18506;DHT22;9382;53.242;10.438;2024-01-25T08:50:41;7.70;99.90
18506;DHT22;9382;53.242;10.438;2024-01-25T08:53:07;7.70;99.90
18506;DHT22;9382;53.242;10.438;2024-01-25T08:55:35;7.70;99.90
18506;DHT22;9382;53.242;10.438;2024-01-25T08:58:03;7.70;99.90
18506;DHT22;9382;53.242;10.438;2024-01-25T09:00:30;7.80;99.90
18506;DHT22;9382;53.242;10.438;2024-01-25T09:02:57;7.80;99.90
18506;DHT22;9382;53.242;10.438;2024-01-25T09:05:23;7.90;99.90
18506;DHT22;9382;53.242;10.438;2024-01-25T09:07:53;7.90;99.90
18506;DHT22;9382;53.242;10.438;2024-01-25T09:10:20;7.90;99.90
18506;DHT22;9382;53.242;10.438;2024-01-25T09:12:47;7.90;99.90
18506;DHT22;9382;53.242;10.438;2024-01-25T09:15:15;7.90;99.90
18506;DHT22;9382;53.242;10.438;2024-01-25T09:17:41;7.90;99.90
18506;DHT22;9382;53.242;10.438;2024-01-25T09:20:09;7.90;99.90
18506;DHT22;9382;53.242;10.438;2024-01-25T09:22:36;7.90;99.90
18506;DHT22;9382;53.242;10.438;2024-01-25T09:25:04;8.00;99.90
18506;DHT22;9382;53.242;10.438;2024-01-25T09:27:31;8.00;99.90
18506;DHT22;9382;53.242;10.438;2024-01-25T09:29:58;8.00;99.90
18506;DHT22;9382;53.242;10.438;2024-01-25T09:32:26;8.10;99.90
18506;DHT22;9382;53.242;10.438;2024-01-25T09:34:52;8.10;99.90
18506;DHT22;9382;53.242;10.438;2024-01-25T09:37:19;8.20;99.90
18506;DHT22;9382;53.242;10.438;2024-01-25T09:39:48;8.10;99.90
18506;DHT22;9382;53.242;10.438;2024-01-25T09:42:16;8.10;99.90
18506;DHT22;9382;53.242;10.438;2024-01-25T09:44:43;8.00;99.90
18506;DHT22;9382;53.242;10.438;2024-01-25T09:47:11;8.10;99.90
18506;DHT22;9382;53.242;10.438;2024-01-25T09:49:39;8.20;99.90
18506;DHT22;9382;53.242;10.438;2024-01-25T09:52:10;8.10;99.90
18506;DHT22;9382;53.242;10.438;2024-01-25T09:54:38;8.20;99.90
18506;DHT22;9382;53.242;10.438;2024-01-25T09:57:11;8.20;99.90
18506;DHT22;9382;53.242;10.438;2024-01-25T09:59:40;8.20;99.90
18506;DHT22;9382;53.242;10.438;2024-01-25T10:02:08;8.20;99.90
18506;DHT22;9382;53.242;10.438;2024-01-25T10:04:36;8.30;99.90
18506;DHT22;9382;53.242;10.438;2024-01-25T10:07:04;8.40;99.90
18506;DHT22;9382;53.242;10.438;2024-01-25T10:09:37;8.50;99.90
18506;DHT22;9382;53.242;10.438;2024-01-25T10:12:05;8.50;99.90
18506;DHT22;9382;53.242;10.438;2024-01-25T10:14:32;8.50;99.90
18506;DHT22;9382;53.242;10.438;2024-01-25T10:16:58;8.50;99.90
18506;DHT22;9382;53.242;10.438;2024-01-25T10:19:26;8.60;99.90
18506;DHT22;9382;53.242;10.438;2024-01-25T10:21:53;8.70;99.90
18506;DHT22;9382;53.242;10.438;2024-01-25T10:24:21;8.60;99.90
18506;DHT22;9382;53.242;10.438;2024-01-25T10:26:50;8.60;99.90
18506;DHT22;9382;53.242;10.438;2024-01-25T10:29:17;8.70;99.90
18506;DHT22;9382;53.242;10.438;2024-01-25T10:31:44;8.80;99.90
18506;DHT22;9382;53.242;10.438;2024-01-25T10:34:13;8.90;99.90
18506;DHT22;9382;53.242;10.438;2024-01-25T10:36:42;9.00;99.90
18506;DHT22;9382;53.242;10.438;2024-01-25T10:39:09;9.10;99.90
18506;DHT22;9382;53.242;10.438;2024-01-25T10:41:39;9.30;99.90
18506;DHT22;9382;53.242;10.438;2024-01-25T10:44:07;9.20;99.90
18506;DHT22;9382;53.242;10.438;2024-01-25T10:46:34;9.00;99.90
18506;DHT22;9382;53.242;10.438;2024-01-25T10:49:02;9.00;99.90
18506;DHT22;9382;53.242;10.438;2024-01-25T10:51:29;9.00;99.90
18506;DHT22;9382;53.242;10.438;2024-01-25T10:53:56;9.00;99.90
18506;DHT22;9382;53.242;10.438;2024-01-25T10:56:24;9.00;99.90
18506;DHT22;9382;53.242;10.438;2024-01-25T10:58:52;8.90;99.90
18506;DHT22;9382;53.242;10.438;2024-01-25T11:01:20;8.90;99.90
18506;DHT22;9382;53.242;10.438;2024-01-25T11:03:46;9.00;99.90
18506;DHT22;9382;53.242;10.438;2024-01-25T11:06:13;9.00;99.90
18506;DHT22;9382;53.242;10.438;2024-01-25T11:08:40;9.00;99.90
18506;DHT22;9382;53.242;10.438;2024-01-25T11:11:08;9.10;99.90
18506;DHT22;9382;53.242;10.438;2024-01-25T11:13:38;9.10;99.90
18506;DHT22;9382;53.242;10.438;2024-01-25T11:16:14;9.10;99.90
18506;DHT22;9382;53.242;10.438;2024-01-25T11:18:50;9.10;99.90
18506;DHT22;9382;53.242;10.438;2024-01-25T11:21:25;9.00;99.90
18506;DHT22;9382;53.242;10.438;2024-01-25T11:24:00;9.10;99.90
18506;DHT22;9382;53.242;10.438;2024-01-25T11:26:27;9.10;99.90
18506;DHT22;9382;53.242;10.438;2024-01-25T11:28:54;8.90;99.90
18506;DHT22;9382;53.242;10.438;2024-01-25T11:31:23;8.70;99.90
18506;DHT22;9382;53.242;10.438;2024-01-25T11:33:50;8.70;99.90
18506;DHT22;9382;53.242;10.438;2024-01-25T11:36:20;8.70;99.90
18506;DHT22;9382;53.242;10.438;2024-01-25T11:38:47;8.70;99.90
18506;DHT22;9382;53.242;10.438;2024-01-25T11:41:14;8.70;99.90
18506;DHT22;9382;53.242;10.438;2024-01-25T11:43:41;8.60;99.90
18506;DHT22;9382;53.242;10.438;2024-01-25T11:46:10;8.80;99.90
18506;DHT22;9382;53.242;10.438;2024-01-25T11:48:40;8.90;99.90
18506;DHT22;9382;53.242;10.438;2024-01-25T11:51:09;9.00;99.90
18506;DHT22;9382;53.242;10.438;2024-01-25T11:53:35;9.00;99.90
18506;DHT22;9382;53.242;10.438;2024-01-25T11:56:03;8.90;99.90
18506;DHT22;9382;53.242;10.438;2024-01-25T11:58:31;8.80;99.90
18506;DHT22;9382;53.242;10.438;2024-01-25T12:00:58;8.80;99.90
18506;DHT22;9382;53.242;10.438;2024-01-25T12:03:25;8.80;99.90
18506;DHT22;9382;53.242;10.438;2024-01-25T12:05:53;8.80;99.90
18506;DHT22;9382;53.242;10.438;2024-01-25T12:08:22;8.70;99.90
18506;DHT22;9382;53.242;10.438;2024-01-25T12:10:49;8.70;99.90
18506;DHT22;9382;53.242;10.438;2024-01-25T12:13:16;8.70;99.90
18506;DHT22;9382;53.242;10.438;2024-01-25T12:15:43;8.70;99.90
18506;DHT22;9382;53.242;10.438;2024-01-25T12:18:10;8.70;99.90
18506;DHT22;9382;53.242;10.438;2024-01-25T12:20:37;8.70;99.90
18506;DHT22;9382;53.242;10.438;2024-01-25T12:23:06;8.70;99.90
18506;DHT22;9382;53.242;10.438;2024-01-25T12:25:39;8.50;99.90
18506;DHT22;9382;53.242;10.438;2024-01-25T12:28:06;8.40;99.90
18506;DHT22;9382;53.242;10.438;2024-01-25T12:30:32;8.30;99.90
18506;DHT22;9382;53.242;10.438;2024-01-25T12:32:59;8.40;99.90
18506;DHT22;9382;53.242;10.438;2024-01-25T12:35:26;8.30;99.90
18506;DHT22;9382;53.242;10.438;2024-01-25T12:37:55;8.30;99.90
18506;DHT22;9382;53.242;10.438;2024-01-25T12:40:23;8.40;99.90
18506;DHT22;9382;53.242;10.438;2024-01-25T12:42:50;8.30;99.90
18506;DHT22;9382;53.242;10.438;2024-01-25T12:45:17;8.30;99.90
18506;DHT22;9382;53.242;10.438;2024-01-25T12:47:43;8.30;99.90
18506;DHT22;9382;53.242;10.438;2024-01-25T12:50:21;8.20;99.90
18506;DHT22;9382;53.242;10.438;2024-01-25T12:52:47;8.20;99.90
18506;DHT22;9382;53.242;10.438;2024-01-25T12:55:15;8.20;99.90
18506;DHT22;9382;53.242;10.438;2024-01-25T12:57:43;8.10;99.90
18506;DHT22;9382;53.242;10.438;2024-01-25T13:00:10;8.20;99.90
18506;DHT22;9382;53.242;10.438;2024-01-25T13:02:37;8.20;99.90
18506;DHT22;9382;53.242;10.438;2024-01-25T13:05:04;8.10;99.90
18506;DHT22;9382;53.242;10.438;2024-01-25T13:07:31;8.10;99.90
18506;DHT22;9382;53.242;10.438;2024-01-25T13:09:58;8.10;99.90
18506;DHT22;9382;53.242;10.438;2024-01-25T13:12:25;8.10;99.90
18506;DHT22;9382;53.242;10.438;2024-01-25T13:14:56;8.10;99.90
18506;DHT22;9382;53.242;10.438;2024-01-25T13:17:22;8.10;99.90
18506;DHT22;9382;53.242;10.438;2024-01-25T13:19:50;8.10;99.90
18506;DHT22;9382;53.242;10.438;2024-01-25T13:22:20;8.10;99.90
18506;DHT22;9382;53.242;10.438;2024-01-25T13:24:48;8.10;99.90
18506;DHT22;9382;53.242;10.438;2024-01-25T13:27:14;8.10;99.90
18506;DHT22;9382;53.242;10.438;2024-01-25T13:29:44;8.20;99.90
18506;DHT22;9382;53.242;10.438;2024-01-25T13:32:13;8.20;99.90
18506;DHT22;9382;53.242;10.438;2024-01-25T13:34:39;8.10;99.90
18506;DHT22;9382;53.242;10.438;2024-01-25T13:37:06;8.00;99.90
18506;DHT22;9382;53.242;10.438;2024-01-25T13:39:33;7.90;99.90
18506;DHT22;9382;53.242;10.438;2024-01-25T13:42:00;7.90;99.90
18506;DHT22;9382;53.242;10.438;2024-01-25T13:44:26;7.90;99.90
18506;DHT22;9382;53.242;10.438;2024-01-25T13:46:53;8.00;99.90
18506;DHT22;9382;53.242;10.438;2024-01-25T13:49:22;8.00;99.90
18506;DHT22;9382;53.242;10.438;2024-01-25T13:51:49;8.10;99.90
18506;DHT22;9382;53.242;10.438;2024-01-25T13:54:16;8.10;99.90
18506;DHT22;9382;53.242;10.438;2024-01-25T13:56:45;8.20;99.90
18506;DHT22;9382;53.242;10.438;2024-01-25T13:59:12;8.20;99.90
18506;DHT22;9382;53.242;10.438;2024-01-25T14:01:39;8.20;99.90
18506;DHT22;9382;53.242;10.438;2024-01-25T14:04:06;8.20;99.90
18506;DHT22;9382;53.242;10.438;2024-01-25T14:06:34;8.30;99.90
18506;DHT22;9382;53.242;10.438;2024-01-25T14:09:01;8.30;99.90
18506;DHT22;9382;53.242;10.438;2024-01-25T14:11:28;8.30;99.90
18506;DHT22;9382;53.242;10.438;2024-01-25T14:13:56;8.30;99.90
18506;DHT22;9382;53.242;10.438;2024-01-25T14:16:23;8.40;99.90
18506;DHT22;9382;53.242;10.438;2024-01-25T14:18:50;8.40;99.90
18506;DHT22;9382;53.242;10.438;2024-01-25T14:21:17;8.50;99.90
18506;DHT22;9382;53.242;10.438;2024-01-25T14:23:47;8.70;99.90
18506;DHT22;9382;53.242;10.438;2024-01-25T14:26:14;8.70;99.90
18506;DHT22;9382;53.242;10.438;2024-01-25T14:28:41;8.80;99.90
18506;DHT22;9382;53.242;10.438;2024-01-25T14:31:06;8.80;99.90
18506;DHT22;9382;53.242;10.438;2024-01-25T14:33:33;8.90;99.90
18506;DHT22;9382;53.242;10.438;2024-01-25T14:36:00;8.80;99.90
18506;DHT22;9382;53.242;10.438;2024-01-25T14:38:29;8.90;99.90
18506;DHT22;9382;53.242;10.438;2024-01-25T14:40:57;9.00;99.90
18506;DHT22;9382;53.242;10.438;2024-01-25T14:43:24;9.10;99.90
18506;DHT22;9382;53.242;10.438;2024-01-25T14:45:50;9.20;99.90
18506;DHT22;9382;53.242;10.438;2024-01-25T14:48:17;9.10;99.90
18506;DHT22;9382;53.242;10.438;2024-01-25T14:50:44;9.10;99.90
18506;DHT22;9382;53.242;10.438;2024-01-25T14:53:11;9.10;99.90
18506;DHT22;9382;53.242;10.438;2024-01-25T14:55:38;9.00;99.90
18506;DHT22;9382;53.242;10.438;2024-01-25T14:58:06;8.90;99.90
18506;DHT22;9382;53.242;10.438;2024-01-25T15:00:35;8.80;99.90
18506;DHT22;9382;53.242;10.438;2024-01-25T15:03:02;8.70;99.90
18506;DHT22;9382;53.242;10.438;2024-01-25T15:05:31;8.70;99.90
18506;DHT22;9382;53.242;10.438;2024-01-25T15:07:57;8.50;99.90
18506;DHT22;9382;53.242;10.438;2024-01-25T15:10:24;8.50;99.90
18506;DHT22;9382;53.242;10.438;2024-01-25T15:12:51;8.50;99.90
18506;DHT22;9382;53.242;10.438;2024-01-25T15:15:20;8.40;99.90
18506;DHT22;9382;53.242;10.438;2024-01-25T15:17:47;8.30;99.90
18506;DHT22;9382;53.242;10.438;2024-01-25T15:20:14;8.20;99.90
18506;DHT22;9382;53.242;10.438;2024-01-25T15:22:41;8.20;99.90
18506;DHT22;9382;53.242;10.438;2024-01-25T15:25:08;8.20;99.90
18506;DHT22;9382;53.242;10.438;2024-01-25T15:27:35;8.10;99.90
18506;DHT22;9382;53.242;10.438;2024-01-25T15:30:02;8.10;99.90
18506;DHT22;9382;53.242;10.438;2024-01-25T15:32:32;8.10;99.90
18506;DHT22;9382;53.242;10.438;2024-01-25T15:34:59;8.10;99.90
18506;DHT22;9382;53.242;10.438;2024-01-25T15:37:26;8.00;99.90
18506;DHT22;9382;53.242;10.438;2024-01-25T15:39:58;8.00;99.90
18506;DHT22;9382;53.242;10.438;2024-01-25T15:42:25;8.00;99.90
18506;DHT22;9382;53.242;10.438;2024-01-25T15:44:56;7.90;99.90